Gloucester, Massachusetts
Current Conditions -  °F | °C
As of 8:53 PM on Tuesday 21 Oct 2014 (Local Time) from KBVY Reporting Station
Haze Haze  
Wind Chill: 55°   Ceiling: 400
Heat Index: 55°   Visibility: 6mi
Dew Point: 53°   Wind: 8mph
Humidity: 93%   Direction: 10°N
Pressure: 29.96"   Gusts: NA
Location:  42.61°N, 70.67°W
Report Text: KBVY 220053Z AUTO 01007KT 6SM BR OVC004 13/12 A2996 RMK AO2 SLP139 T01280117
Loading
Personal Weather Stations






























Interactive Weather Map
Tropical Storm Tracking
New forecast layout! Learn more

10-Day Weather Forecast

Advertisements
Track Severe Weather on mobile